createdAt,value
2022-11-01T00:02:48.524Z,11.94
2022-11-01T00:07:53.299Z,11.97
2022-11-01T00:12:54.931Z,11.99
2022-11-01T00:17:56.551Z,11.90
2022-11-01T00:22:58.369Z,11.85
2022-11-01T00:28:00.805Z,11.80
2022-11-01T00:33:02.801Z,11.87
2022-11-01T00:38:06.141Z,12.03
2022-11-01T00:43:07.850Z,12.11
2022-11-01T00:48:09.587Z,11.97
2022-11-01T00:53:12.733Z,12.03
2022-11-01T00:58:14.522Z,12.04
2022-11-01T01:03:16.181Z,12.12
2022-11-01T01:08:17.924Z,12.11
2022-11-01T01:13:20.705Z,12.09
2022-11-01T01:18:22.332Z,12.11
2022-11-01T01:23:23.938Z,12.11
2022-11-01T01:28:26.213Z,12.05
2022-11-01T01:33:28.059Z,11.92
2022-11-01T01:38:30.334Z,11.76
2022-11-01T01:43:50.261Z,11.61
2022-11-01T01:48:58.206Z,11.73
2022-11-01T01:53:59.961Z,11.71
2022-11-01T01:59:07.887Z,11.62
2022-11-01T02:04:20.740Z,11.58
2022-11-01T02:09:22.480Z,11.59
2022-11-01T02:14:25.608Z,11.63
2022-11-01T02:20:04.530Z,11.44
2022-11-01T02:25:10.939Z,11.37
2022-11-01T02:30:16.354Z,11.34
2022-11-01T02:35:25.819Z,11.23
2022-11-01T02:40:27.449Z,11.24
2022-11-01T02:45:38.093Z,11.20
2022-11-01T02:50:43.740Z,11.13
2022-11-01T03:00:47.195Z,11.23
2022-11-01T03:06:01.559Z,11.40
2022-11-01T03:11:15.460Z,11.44
2022-11-01T03:16:28.011Z,11.52
2022-11-01T03:21:39.044Z,11.59
2022-11-01T03:26:43.051Z,11.62
2022-11-01T03:31:46.432Z,11.69
2022-11-01T03:36:56.390Z,11.62
2022-11-01T03:42:04.647Z,11.55
2022-11-01T03:47:07.372Z,11.63
2022-11-01T03:52:09.503Z,11.58
2022-11-01T03:57:12.302Z,11.60
2022-11-01T04:02:13.993Z,11.50
2022-11-01T04:07:15.715Z,11.53
2022-11-01T04:12:17.360Z,11.48
2022-11-01T04:17:37.795Z,11.38
2022-11-01T04:22:39.461Z,11.40
2022-11-01T04:27:41.147Z,11.44
2022-11-01T04:32:49.463Z,11.43
2022-11-01T04:37:58.525Z,11.40
2022-11-01T04:43:00.421Z,11.36
2022-11-01T04:48:12.772Z,11.36
2022-11-01T04:53:14.549Z,11.28
2022-11-01T04:58:16.254Z,11.21
2022-11-01T05:03:18.058Z,11.13
2022-11-01T05:08:19.728Z,11.13
2022-11-01T05:13:21.977Z,11.17
2022-11-01T05:18:23.749Z,11.11
2022-11-01T05:23:25.480Z,11.13
2022-11-01T05:28:27.200Z,11.13
2022-11-01T05:33:28.867Z,11.09
2022-11-01T05:38:30.561Z,11.01
2022-11-01T05:43:32.202Z,10.90
2022-11-01T05:48:34.662Z,10.88
2022-11-01T05:53:36.948Z,10.90
2022-11-01T05:58:38.826Z,10.94
2022-11-01T06:03:40.554Z,10.94
2022-11-01T06:08:42.253Z,10.81
2022-11-01T06:13:44.283Z,10.62
2022-11-01T06:18:45.899Z,10.64
2022-11-01T06:23:50.498Z,10.69
2022-11-01T06:28:52.164Z,10.77
2022-11-01T06:33:53.908Z,10.83
2022-11-01T06:38:55.604Z,10.88
2022-11-01T06:43:57.352Z,10.91
2022-11-01T06:48:59.428Z,10.94
2022-11-01T06:54:01.209Z,10.94
2022-11-01T06:59:02.957Z,11.01
2022-11-01T07:04:05.231Z,11.11
2022-11-01T07:09:07.143Z,11.15
2022-11-01T07:14:09.343Z,11.29
2022-11-01T07:19:11.087Z,11.47
2022-11-01T07:24:12.774Z,11.52
2022-11-01T07:29:14.505Z,11.48
2022-11-01T07:34:16.173Z,11.51
2022-11-01T07:39:17.969Z,11.48
2022-11-01T07:44:20.016Z,11.50
2022-11-01T07:49:21.792Z,11.60
2022-11-01T07:54:23.543Z,11.72
2022-11-01T07:59:25.269Z,11.87
2022-11-01T08:04:26.996Z,12.02
2022-11-01T08:09:28.724Z,12.21
2022-11-01T08:14:30.472Z,12.37
2022-11-01T08:19:32.192Z,12.53
2022-11-01T08:24:33.944Z,12.57
2022-11-01T08:29:35.675Z,12.59
2022-11-01T08:34:37.414Z,12.69
2022-11-01T08:39:39.085Z,12.82
2022-11-01T08:44:41.144Z,12.94
2022-11-01T08:49:42.853Z,13.06
2022-11-01T08:54:44.687Z,13.18
2022-11-01T08:59:46.362Z,13.35
2022-11-01T09:04:48.493Z,13.45
2022-11-01T09:09:50.199Z,13.60
2022-11-01T09:14:52.496Z,13.67
2022-11-01T09:19:54.146Z,13.69
2022-11-01T09:24:57.484Z,13.76
2022-11-01T09:29:59.157Z,13.92
2022-11-01T09:35:00.821Z,14.04
2022-11-01T09:40:03.443Z,14.14
2022-11-01T09:45:15.395Z,14.19
2022-11-01T09:50:30.091Z,14.31
2022-11-01T09:55:48.334Z,14.38
2022-11-01T10:01:15.541Z,14.40
2022-11-01T10:06:39.530Z,14.39
2022-11-01T10:11:59.702Z,14.54
2022-11-01T10:17:15.748Z,14.67
2022-11-01T10:22:38.393Z,14.80
2022-11-01T10:27:53.537Z,14.91
2022-11-01T10:33:02.496Z,14.95
2022-11-01T10:38:37.734Z,15.00
2022-11-01T10:43:32.622Z,15.04
2022-11-01T10:48:40.930Z,15.09
2022-11-01T10:53:50.719Z,15.09
2022-11-01T10:59:05.942Z,15.15
2022-11-01T11:04:12.924Z,15.20
2022-11-01T11:09:24.530Z,15.33
2022-11-01T11:14:28.169Z,15.44
2022-11-01T11:19:29.957Z,15.50
2022-11-01T11:24:35.383Z,15.55
2022-11-01T11:29:51.143Z,15.66
2022-11-01T11:35:06.836Z,15.79
2022-11-01T11:40:25.828Z,15.93
2022-11-01T11:45:31.313Z,16.10
2022-11-01T11:50:34.160Z,16.15
2022-11-01T11:55:38.086Z,16.21
2022-11-01T12:00:49.327Z,16.31
2022-11-01T12:05:57.546Z,16.37
2022-11-01T12:10:59.529Z,16.45
2022-11-01T12:16:24.231Z,16.51
2022-11-01T12:21:25.942Z,16.55
2022-11-01T12:26:30.681Z,16.63
2022-11-01T12:31:32.630Z,16.73
2022-11-01T12:36:43.562Z,16.85
2022-11-01T12:41:59.188Z,16.93
2022-11-01T12:47:13.062Z,16.96
2022-11-01T12:52:42.288Z,16.99
2022-11-01T12:57:44.481Z,16.98
2022-11-01T13:03:18.768Z,17.05
2022-11-01T13:08:42.039Z,17.16
2022-11-01T13:13:52.803Z,17.34
2022-11-01T13:19:10.511Z,17.40
2022-11-01T13:24:32.005Z,17.40
2022-11-01T13:29:33.774Z,17.41
2022-11-01T13:34:53.711Z,17.38
2022-11-01T13:40:07.355Z,17.35
2022-11-01T13:45:42.475Z,17.37
2022-11-01T13:51:02.251Z,17.40
2022-11-01T13:56:13.242Z,17.44
2022-11-01T14:01:36.428Z,17.55
2022-11-01T14:06:41.791Z,17.66
2022-11-01T14:11:48.303Z,17.66
2022-11-01T14:16:50.455Z,17.66
2022-11-01T14:21:53.347Z,17.66
2022-11-01T14:27:34.938Z,17.64
2022-11-01T14:32:37.156Z,17.58
2022-11-01T14:37:47.051Z,17.49
2022-11-01T14:42:52.157Z,17.40
2022-11-01T14:47:58.262Z,17.31
2022-11-01T14:53:11.132Z,17.19
2022-11-01T14:58:15.767Z,16.87
2022-11-01T15:03:18.429Z,16.62
2022-11-01T15:08:26.195Z,16.45
2022-11-01T15:13:29.814Z,16.31
2022-11-01T15:18:32.137Z,16.20
2022-11-01T15:23:37.372Z,16.16
2022-11-01T15:28:48.155Z,16.16
2022-11-01T15:33:56.297Z,16.08
2022-11-01T15:39:00.437Z,16.03
2022-11-01T15:44:06.136Z,16.02
2022-11-01T15:49:12.097Z,15.98
2022-11-01T15:54:49.385Z,15.94
2022-11-01T16:00:09.863Z,15.88
2022-11-01T16:05:20.311Z,15.75
2022-11-01T16:10:25.444Z,15.74
2022-11-01T16:15:30.515Z,15.79
2022-11-01T16:20:36.620Z,15.77
2022-11-01T16:25:39.730Z,15.62
2022-11-01T16:30:52.468Z,15.45
2022-11-01T16:35:57.624Z,15.43
2022-11-01T16:41:01.152Z,15.39
2022-11-01T16:46:04.439Z,15.39
2022-11-01T16:51:06.086Z,15.16
2022-11-01T16:56:35.463Z,15.07
2022-11-01T17:01:36.578Z,15.05
2022-11-01T17:06:39.403Z,14.97
2022-11-01T17:11:45.055Z,14.94
2022-11-01T17:16:52.349Z,14.84
2022-11-01T17:21:54.887Z,14.81
2022-11-01T17:27:00.444Z,14.84
2022-11-01T17:32:04.040Z,14.77
2022-11-01T17:37:06.456Z,14.60
2022-11-01T17:42:09.608Z,14.48
2022-11-01T17:47:14.536Z,14.49
2022-11-01T17:52:16.307Z,14.54
2022-11-01T17:57:18.048Z,14.58
2022-11-01T18:02:20.188Z,14.58
2022-11-01T18:07:21.854Z,14.64
2022-11-01T18:12:34.361Z,14.67
2022-11-01T18:17:59.838Z,14.55
2022-11-01T18:23:11.003Z,14.56
2022-11-01T18:28:28.906Z,14.49
2022-11-01T18:33:38.348Z,14.49
2022-11-01T18:38:55.934Z,14.46
2022-11-01T18:43:57.731Z,14.42
2022-11-01T18:49:01.910Z,14.37
2022-11-01T18:54:09.548Z,14.14
2022-11-01T18:59:32.841Z,13.99
2022-11-01T19:04:36.170Z,13.97
2022-11-01T19:09:39.872Z,13.96
2022-11-01T19:14:41.850Z,13.87
2022-11-01T19:19:43.807Z,13.86
2022-11-01T19:24:45.458Z,13.77
2022-11-01T19:29:47.211Z,13.54
2022-11-01T19:34:50.124Z,13.37
2022-11-01T19:39:52.493Z,13.22
2022-11-01T19:45:25.849Z,13.03
2022-11-01T19:50:46.823Z,12.91
2022-11-01T19:55:59.347Z,12.87
2022-11-01T20:01:28.278Z,12.91
2022-11-01T20:06:48.428Z,12.88
2022-11-01T20:11:50.211Z,12.86
2022-11-01T20:16:52.261Z,12.76
2022-11-01T20:21:53.921Z,12.66
2022-11-01T20:26:55.621Z,12.51
2022-11-01T20:31:57.451Z,12.48
2022-11-01T20:42:20.877Z,12.49
2022-11-01T20:47:22.495Z,12.34
2022-11-01T20:52:39.201Z,12.25
2022-11-01T20:57:42.249Z,12.32
2022-11-01T21:02:44.490Z,12.30
2022-11-01T21:07:48.054Z,12.20
2022-11-01T21:12:50.771Z,12.22
2022-11-01T21:17:57.933Z,12.32
2022-11-01T21:23:15.391Z,12.35
2022-11-01T21:28:28.799Z,12.32
2022-11-01T21:33:33.503Z,12.40
2022-11-01T21:38:40.119Z,12.44
2022-11-01T21:43:43.972Z,12.39
2022-11-01T21:48:45.794Z,12.40
2022-11-01T21:53:47.945Z,12.48
2022-11-01T21:58:49.611Z,12.50
2022-11-01T22:03:51.671Z,12.30
2022-11-01T22:08:53.444Z,12.10
2022-11-01T22:13:55.288Z,12.09
2022-11-01T22:18:56.957Z,12.08
2022-11-01T22:23:59.160Z,12.11
2022-11-01T22:29:00.797Z,12.12
2022-11-01T22:34:02.659Z,12.13
2022-11-01T22:39:25.927Z,12.08
2022-11-01T22:44:32.194Z,12.03
2022-11-01T22:49:47.735Z,11.99
2022-11-01T22:55:00.197Z,11.96
2022-11-01T23:00:27.582Z,11.88
2022-11-01T23:05:29.316Z,11.57
2022-11-01T23:10:33.527Z,11.42
2022-11-01T23:15:36.434Z,11.42
2022-11-01T23:20:39.990Z,11.42
2022-11-01T23:25:41.805Z,11.41
2022-11-01T23:30:47.045Z,11.29
2022-11-01T23:35:57.993Z,11.15
2022-11-01T23:40:59.728Z,11.03
2022-11-01T23:46:02.140Z,10.95
2022-11-01T23:51:04.389Z,11.04
2022-11-01T23:56:08.442Z,10.86
